sensor_id;sensor_type;location;lat;lon;timestamp;pressure;altitude;pressure_sealevel;temperature;humidity
9415;BME280;4746;35.664;139.738;2022-07-10T00:02:14;99516.09;;;33.98;48.80
9415;BME280;4746;35.664;139.738;2022-07-10T00:04:41;99511.84;;;34.05;48.07
9415;BME280;4746;35.664;139.738;2022-07-10T00:07:09;99521.34;;;34.08;47.66
9415;BME280;4746;35.664;139.738;2022-07-10T00:09:36;99520.28;;;34.01;47.78
9415;BME280;4746;35.664;139.738;2022-07-10T00:12:04;99511.63;;;33.99;48.09
9415;BME280;4746;35.664;139.738;2022-07-10T00:14:32;99517.03;;;34.07;47.43
9415;BME280;4746;35.664;139.738;2022-07-10T00:16:59;99508.38;;;34.05;47.91
9415;BME280;4746;35.664;139.738;2022-07-10T00:19:27;99511.84;;;34.05;47.82
9415;BME280;4746;35.664;139.738;2022-07-10T00:21:54;99517.03;;;34.07;47.85
9415;BME280;4746;35.664;139.738;2022-07-10T00:24:22;99512.38;;;34.09;47.56
9415;BME280;4746;35.664;139.738;2022-07-10T00:26:49;99513.38;;;34.08;47.63
9415;BME280;4746;35.664;139.738;2022-07-10T00:29:17;99528.06;;;34.12;47.44
9415;BME280;4746;35.664;139.738;2022-07-10T00:31:44;99514.69;;;34.04;47.16
9415;BME280;4746;35.664;139.738;2022-07-10T00:34:12;99516.56;;;34.11;47.73
9415;BME280;4746;35.664;139.738;2022-07-10T00:36:39;99506.16;;;34.18;47.65
9415;BME280;4746;35.664;139.738;2022-07-10T00:39:07;99507.81;;;34.19;47.68
9415;BME280;4746;35.664;139.738;2022-07-10T00:41:34;99506.53;;;34.23;47.73
9415;BME280;4746;35.664;139.738;2022-07-10T00:44:03;99500.75;;;34.27;46.97
9415;BME280;4746;35.664;139.738;2022-07-10T00:46:32;99498.75;;;34.29;47.18
9415;BME280;4746;35.664;139.738;2022-07-10T00:49:03;99502.31;;;34.38;47.19
9415;BME280;4746;35.664;139.738;2022-07-10T00:51:31;99504.66;;;34.41;46.54
9415;BME280;4746;35.664;139.738;2022-07-10T00:54:01;99505.41;;;34.33;47.16
9415;BME280;4746;35.664;139.738;2022-07-10T00:56:29;99500.84;;;34.43;47.43
9415;BME280;4746;35.664;139.738;2022-07-10T00:58:58;99495.50;;;34.61;47.92
9415;BME280;4746;35.664;139.738;2022-07-10T01:01:25;99492.72;;;34.70;47.64
9415;BME280;4746;35.664;139.738;2022-07-10T01:03:53;99510.56;;;34.77;47.14
9415;BME280;4746;35.664;139.738;2022-07-10T01:06:20;99504.22;;;34.70;48.03
9415;BME280;4746;35.664;139.738;2022-07-10T01:08:48;99497.88;;;34.71;47.65
9415;BME280;4746;35.664;139.738;2022-07-10T01:11:16;99486.13;;;34.82;47.95
9415;BME280;4746;35.664;139.738;2022-07-10T01:13:44;99488.44;;;35.02;47.58
9415;BME280;4746;35.664;139.738;2022-07-10T01:16:14;99486.50;;;35.20;46.95
9415;BME280;4746;35.664;139.738;2022-07-10T01:18:41;99493.16;;;35.24;47.07
9415;BME280;4746;35.664;139.738;2022-07-10T01:21:31;99479.56;;;35.35;46.53
9415;BME280;4746;35.664;139.738;2022-07-10T01:24:03;99476.06;;;35.27;46.38
9415;BME280;4746;35.664;139.738;2022-07-10T01:26:32;99487.19;;;35.22;47.09
9415;BME280;4746;35.664;139.738;2022-07-10T01:29:06;99482.81;;;35.13;46.74
9415;BME280;4746;35.664;139.738;2022-07-10T01:31:34;99472.78;;;34.99;47.59
9415;BME280;4746;35.664;139.738;2022-07-10T01:34:05;99474.13;;;35.03;47.82
9415;BME280;4746;35.664;139.738;2022-07-10T01:36:34;99490.72;;;34.97;48.16
9415;BME280;4746;35.664;139.738;2022-07-10T01:39:03;99488.63;;;34.83;47.74
9415;BME280;4746;35.664;139.738;2022-07-10T01:41:32;99477.28;;;34.73;47.74
9415;BME280;4746;35.664;139.738;2022-07-10T01:44:00;99467.47;;;34.74;48.12
9415;BME280;4746;35.664;139.738;2022-07-10T01:46:28;99458.63;;;34.73;47.86
9415;BME280;4746;35.664;139.738;2022-07-10T01:48:56;99451.34;;;34.83;47.55
9415;BME280;4746;35.664;139.738;2022-07-10T01:51:23;99476.81;;;34.86;47.58
9415;BME280;4746;35.664;139.738;2022-07-10T01:53:51;99453.66;;;34.78;47.76
9415;BME280;4746;35.664;139.738;2022-07-10T01:56:19;99449.38;;;34.85;47.59
9415;BME280;4746;35.664;139.738;2022-07-10T01:58:46;99462.56;;;34.95;47.45
9415;BME280;4746;35.664;139.738;2022-07-10T02:01:14;99462.13;;;35.07;46.89
9415;BME280;4746;35.664;139.738;2022-07-10T02:03:41;99484.81;;;35.19;47.02
9415;BME280;4746;35.664;139.738;2022-07-10T02:06:27;99479.41;;;35.36;46.52
9415;BME280;4746;35.664;139.738;2022-07-10T02:08:55;99477.66;;;35.53;46.52
9415;BME280;4746;35.664;139.738;2022-07-10T02:11:22;99475.16;;;35.67;46.11
9415;BME280;4746;35.664;139.738;2022-07-10T02:13:50;99472.31;;;35.77;45.99
9415;BME280;4746;35.664;139.738;2022-07-10T02:16:17;99486.19;;;35.88;45.65
9415;BME280;4746;35.664;139.738;2022-07-10T02:18:45;99540.03;;;35.84;44.72
9415;BME280;4746;35.664;139.738;2022-07-10T02:21:12;99484.63;;;35.54;45.58
9415;BME280;4746;35.664;139.738;2022-07-10T02:23:40;99496.56;;;35.42;45.84
9415;BME280;4746;35.664;139.738;2022-07-10T02:26:08;99495.56;;;35.35;45.55
9415;BME280;4746;35.664;139.738;2022-07-10T02:28:35;99492.53;;;35.30;45.58
9415;BME280;4746;35.664;139.738;2022-07-10T02:31:03;99479.91;;;35.40;45.87
9415;BME280;4746;35.664;139.738;2022-07-10T02:33:30;99488.63;;;35.50;46.14
9415;BME280;4746;35.664;139.738;2022-07-10T02:36:00;99496.97;;;35.55;45.90
9415;BME280;4746;35.664;139.738;2022-07-10T02:38:28;99484.47;;;35.63;45.89
9415;BME280;4746;35.664;139.738;2022-07-10T02:40:56;99474.84;;;35.78;45.52
9415;BME280;4746;35.664;139.738;2022-07-10T02:43:23;99485.66;;;35.77;45.34
9415;BME280;4746;35.664;139.738;2022-07-10T02:45:51;99475.34;;;35.74;45.57
9415;BME280;4746;35.664;139.738;2022-07-10T02:48:18;99467.16;;;35.75;45.54
9415;BME280;4746;35.664;139.738;2022-07-10T02:50:46;99464.50;;;35.83;45.36
9415;BME280;4746;35.664;139.738;2022-07-10T02:53:13;99465.34;;;35.92;44.34
9415;BME280;4746;35.664;139.738;2022-07-10T02:55:41;99473.03;;;35.95;44.80
9415;BME280;4746;35.664;139.738;2022-07-10T02:58:08;99475.50;;;35.88;44.34
9415;BME280;4746;35.664;139.738;2022-07-10T03:00:37;99444.66;;;35.78;44.22
9415;BME280;4746;35.664;139.738;2022-07-10T03:03:07;99432.81;;;35.80;44.71
9415;BME280;4746;35.664;139.738;2022-07-10T03:05:34;99441.31;;;35.92;44.34
9415;BME280;4746;35.664;139.738;2022-07-10T03:08:02;99448.38;;;35.93;44.05
9415;BME280;4746;35.664;139.738;2022-07-10T03:10:29;99458.50;;;35.81;44.27
9415;BME280;4746;35.664;139.738;2022-07-10T03:12:57;99442.84;;;35.78;43.98
9415;BME280;4746;35.664;139.738;2022-07-10T03:15:24;99449.81;;;35.71;44.44
9415;BME280;4746;35.664;139.738;2022-07-10T03:17:52;99462.00;;;35.82;43.86
9415;BME280;4746;35.664;139.738;2022-07-10T03:20:22;99462.66;;;35.92;43.30
9415;BME280;4746;35.664;139.738;2022-07-10T03:22:50;99442.19;;;36.00;43.61
9415;BME280;4746;35.664;139.738;2022-07-10T03:25:18;99438.66;;;36.23;42.38
9415;BME280;4746;35.664;139.738;2022-07-10T03:27:46;99424.63;;;36.37;42.70
9415;BME280;4746;35.664;139.738;2022-07-10T03:30:13;99423.78;;;36.53;41.96
9415;BME280;4746;35.664;139.738;2022-07-10T03:32:41;99438.75;;;36.62;41.75
9415;BME280;4746;35.664;139.738;2022-07-10T03:35:08;99433.88;;;36.73;41.46
9415;BME280;4746;35.664;139.738;2022-07-10T03:37:36;99427.72;;;36.73;41.41
9415;BME280;4746;35.664;139.738;2022-07-10T03:40:04;99441.22;;;36.71;41.36
9415;BME280;4746;35.664;139.738;2022-07-10T03:42:32;99452.09;;;36.62;42.60
9415;BME280;4746;35.664;139.738;2022-07-10T03:44:59;99437.91;;;36.69;42.08
9415;BME280;4746;35.664;139.738;2022-07-10T03:47:27;99434.38;;;36.84;41.73
9415;BME280;4746;35.664;139.738;2022-07-10T03:49:54;99441.56;;;36.84;41.60
9415;BME280;4746;35.664;139.738;2022-07-10T03:52:22;99438.53;;;36.79;41.66
9415;BME280;4746;35.664;139.738;2022-07-10T03:54:49;99440.91;;;36.74;41.66
9415;BME280;4746;35.664;139.738;2022-07-10T03:57:17;99436.75;;;36.72;41.25
9415;BME280;4746;35.664;139.738;2022-07-10T04:00:03;99422.53;;;36.71;41.66
9415;BME280;4746;35.664;139.738;2022-07-10T04:02:31;99423.69;;;36.77;41.57
9415;BME280;4746;35.664;139.738;2022-07-10T04:04:58;99422.81;;;36.92;41.24
9415;BME280;4746;35.664;139.738;2022-07-10T04:07:26;99416.72;;;37.06;40.96
9415;BME280;4746;35.664;139.738;2022-07-10T04:09:53;99403.44;;;37.28;40.44
9415;BME280;4746;35.664;139.738;2022-07-10T04:12:21;99413.16;;;37.52;40.52
9415;BME280;4746;35.664;139.738;2022-07-10T04:14:48;99423.03;;;37.73;40.26
9415;BME280;4746;35.664;139.738;2022-07-10T04:17:21;99438.47;;;37.86;39.51
9415;BME280;4746;35.664;139.738;2022-07-10T04:19:48;99421.19;;;37.74;39.44
9415;BME280;4746;35.664;139.738;2022-07-10T04:22:16;99423.75;;;37.59;39.38
9415;BME280;4746;35.664;139.738;2022-07-10T04:24:43;99411.09;;;37.53;39.99
9415;BME280;4746;35.664;139.738;2022-07-10T04:27:12;99418.66;;;37.50;39.74
9415;BME280;4746;35.664;139.738;2022-07-10T04:29:41;99417.47;;;37.53;39.58
9415;BME280;4746;35.664;139.738;2022-07-10T04:32:09;99408.84;;;37.65;40.09
9415;BME280;4746;35.664;139.738;2022-07-10T04:34:36;99408.94;;;37.79;40.31
9415;BME280;4746;35.664;139.738;2022-07-10T04:37:05;99404.63;;;37.93;39.91
9415;BME280;4746;35.664;139.738;2022-07-10T04:39:37;99415.63;;;37.98;40.27
9415;BME280;4746;35.664;139.738;2022-07-10T04:42:09;99387.59;;;38.08;39.73
9415;BME280;4746;35.664;139.738;2022-07-10T04:44:37;99395.91;;;38.13;39.54
9415;BME280;4746;35.664;139.738;2022-07-10T04:47:06;99404.34;;;38.25;39.73
9415;BME280;4746;35.664;139.738;2022-07-10T04:49:34;99397.06;;;38.33;39.08
9415;BME280;4746;35.664;139.738;2022-07-10T04:52:02;99391.59;;;38.41;39.37
9415;BME280;4746;35.664;139.738;2022-07-10T04:54:30;99383.22;;;38.44;38.97
9415;BME280;4746;35.664;139.738;2022-07-10T04:56:58;99398.63;;;38.42;39.07
9415;BME280;4746;35.664;139.738;2022-07-10T04:59:27;99405.13;;;38.62;38.35
9415;BME280;4746;35.664;139.738;2022-07-10T05:01:55;99405.56;;;38.80;37.93
9415;BME280;4746;35.664;139.738;2022-07-10T05:04:22;99397.06;;;38.91;38.21
9415;BME280;4746;35.664;139.738;2022-07-10T05:06:50;99412.22;;;38.84;37.89
9415;BME280;4746;35.664;139.738;2022-07-10T05:09:17;99413.16;;;38.62;38.08
9415;BME280;4746;35.664;139.738;2022-07-10T05:11:47;99418.09;;;38.36;38.57
9415;BME280;4746;35.664;139.738;2022-07-10T05:14:15;99403.50;;;38.38;38.13
9415;BME280;4746;35.664;139.738;2022-07-10T05:16:43;99403.91;;;38.50;38.18
9415;BME280;4746;35.664;139.738;2022-07-10T05:19:10;99412.66;;;38.58;37.81
9415;BME280;4746;35.664;139.738;2022-07-10T05:21:38;99406.81;;;38.63;38.13
9415;BME280;4746;35.664;139.738;2022-07-10T05:24:07;99393.19;;;38.50;38.83
9415;BME280;4746;35.664;139.738;2022-07-10T05:26:35;99391.44;;;38.57;38.54
9415;BME280;4746;35.664;139.738;2022-07-10T05:29:03;99407.53;;;38.71;38.38
9415;BME280;4746;35.664;139.738;2022-07-10T05:31:30;99394.13;;;38.86;38.26
9415;BME280;4746;35.664;139.738;2022-07-10T05:33:58;99401.47;;;39.12;37.81
9415;BME280;4746;35.664;139.738;2022-07-10T05:36:25;99383.84;;;39.24;37.00
9415;BME280;4746;35.664;139.738;2022-07-10T05:38:55;99369.53;;;39.17;37.09
9415;BME280;4746;35.664;139.738;2022-07-10T05:41:23;99375.09;;;39.16;37.14
9415;BME280;4746;35.664;139.738;2022-07-10T05:43:50;99364.06;;;39.25;36.33
9415;BME280;4746;35.664;139.738;2022-07-10T05:46:18;99380.31;;;39.38;36.17
9415;BME280;4746;35.664;139.738;2022-07-10T05:48:45;99368.94;;;39.57;35.94
9415;BME280;4746;35.664;139.738;2022-07-10T05:51:13;99373.28;;;39.79;35.70
9415;BME280;4746;35.664;139.738;2022-07-10T05:53:40;99381.72;;;39.97;34.81
9415;BME280;4746;35.664;139.738;2022-07-10T05:56:08;99377.50;;;40.15;34.93
9415;BME280;4746;35.664;139.738;2022-07-10T05:58:36;99377.66;;;40.68;34.08
9415;BME280;4746;35.664;139.738;2022-07-10T06:01:03;99365.47;;;41.19;32.57
9415;BME280;4746;35.664;139.738;2022-07-10T06:03:31;99380.88;;;41.77;32.48
9415;BME280;4746;35.664;139.738;2022-07-10T06:05:59;99363.47;;;42.24;31.57
9415;BME280;4746;35.664;139.738;2022-07-10T06:08:26;99359.28;;;42.54;31.16
9415;BME280;4746;35.664;139.738;2022-07-10T06:10:54;99359.34;;;42.91;30.97
9415;BME280;4746;35.664;139.738;2022-07-10T06:13:22;99363.53;;;43.25;30.00
9415;BME280;4746;35.664;139.738;2022-07-10T06:15:49;99375.75;;;43.64;30.28
9415;BME280;4746;35.664;139.738;2022-07-10T06:18:16;99369.97;;;44.10;28.97
9415;BME280;4746;35.664;139.738;2022-07-10T06:20:44;99364.56;;;44.34;28.49
9415;BME280;4746;35.664;139.738;2022-07-10T06:23:12;99397.91;;;44.46;28.49
9415;BME280;4746;35.664;139.738;2022-07-10T06:25:39;99384.97;;;44.48;28.38
9415;BME280;4746;35.664;139.738;2022-07-10T06:28:07;99382.22;;;44.12;28.51
9415;BME280;4746;35.664;139.738;2022-07-10T06:30:34;99369.88;;;43.37;29.26
9415;BME280;4746;35.664;139.738;2022-07-10T06:33:02;99379.03;;;43.05;29.70
9415;BME280;4746;35.664;139.738;2022-07-10T06:35:29;99385.75;;;42.76;29.73
9415;BME280;4746;35.664;139.738;2022-07-10T06:37:56;99380.09;;;43.35;29.25
9415;BME280;4746;35.664;139.738;2022-07-10T06:40:26;99378.66;;;44.18;28.27
9415;BME280;4746;35.664;139.738;2022-07-10T06:42:56;99371.00;;;45.22;26.42
9415;BME280;4746;35.664;139.738;2022-07-10T06:45:23;99376.09;;;45.12;26.48
9415;BME280;4746;35.664;139.738;2022-07-10T06:47:51;99363.22;;;44.01;27.46
9415;BME280;4746;35.664;139.738;2022-07-10T06:50:32;99362.59;;;43.13;28.31
9415;BME280;4746;35.664;139.738;2022-07-10T06:53:03;99364.97;;;42.83;29.13
9415;BME280;4746;35.664;139.738;2022-07-10T06:55:31;99359.59;;;44.85;27.02
9415;BME280;4746;35.664;139.738;2022-07-10T06:57:59;99361.03;;;46.66;25.00
9415;BME280;4746;35.664;139.738;2022-07-10T07:00:28;99359.13;;;48.11;23.48
9415;BME280;4746;35.664;139.738;2022-07-10T07:02:55;99373.00;;;48.85;22.85
9415;BME280;4746;35.664;139.738;2022-07-10T07:05:23;99366.38;;;49.24;22.52
9415;BME280;4746;35.664;139.738;2022-07-10T07:07:51;99377.88;;;49.83;21.05
9415;BME280;4746;35.664;139.738;2022-07-10T07:10:18;99357.16;;;49.87;21.22
9415;BME280;4746;35.664;139.738;2022-07-10T07:12:46;99362.38;;;49.62;21.00
9415;BME280;4746;35.664;139.738;2022-07-10T07:15:13;99354.91;;;49.79;20.87
9415;BME280;4746;35.664;139.738;2022-07-10T07:17:43;99349.88;;;50.39;20.27
9415;BME280;4746;35.664;139.738;2022-07-10T07:20:30;99360.53;;;50.96;19.93
9415;BME280;4746;35.664;139.738;2022-07-10T07:23:15;99371.06;;;50.63;19.71
9415;BME280;4746;35.664;139.738;2022-07-10T07:25:42;99353.00;;;50.52;19.94
9415;BME280;4746;35.664;139.738;2022-07-10T07:28:17;99370.28;;;50.73;20.12
9415;BME280;4746;35.664;139.738;2022-07-10T07:30:49;99348.75;;;49.62;21.26
9415;BME280;4746;35.664;139.738;2022-07-10T07:33:16;99381.06;;;49.23;21.41
9415;BME280;4746;35.664;139.738;2022-07-10T07:35:44;99369.53;;;48.14;22.46
9415;BME280;4746;35.664;139.738;2022-07-10T07:38:12;99370.13;;;46.60;23.83
9415;BME280;4746;35.664;139.738;2022-07-10T07:40:39;99363.50;;;47.35;23.49
9415;BME280;4746;35.664;139.738;2022-07-10T07:43:07;99357.34;;;48.54;22.42
9415;BME280;4746;35.664;139.738;2022-07-10T07:45:34;99372.22;;;49.63;21.15
9415;BME280;4746;35.664;139.738;2022-07-10T07:48:02;99374.56;;;50.54;20.56
9415;BME280;4746;35.664;139.738;2022-07-10T07:50:35;99366.91;;;50.56;20.38
9415;BME280;4746;35.664;139.738;2022-07-10T07:53:05;99368.63;;;50.67;20.08
9415;BME280;4746;35.664;139.738;2022-07-10T07:55:35;99380.94;;;50.74;20.46
9415;BME280;4746;35.664;139.738;2022-07-10T07:58:04;99386.75;;;50.88;19.66
9415;BME280;4746;35.664;139.738;2022-07-10T08:00:32;99394.47;;;50.13;20.75
9415;BME280;4746;35.664;139.738;2022-07-10T08:03:02;99378.38;;;49.28;21.37
9415;BME280;4746;35.664;139.738;2022-07-10T08:05:30;99376.56;;;49.12;21.79
9415;BME280;4746;35.664;139.738;2022-07-10T08:07:59;99377.47;;;49.43;22.19
9415;BME280;4746;35.664;139.738;2022-07-10T08:10:32;99378.34;;;49.80;21.19
9415;BME280;4746;35.664;139.738;2022-07-10T08:12:59;99373.56;;;49.92;20.13
9415;BME280;4746;35.664;139.738;2022-07-10T08:15:27;99374.22;;;50.09;20.69
9415;BME280;4746;35.664;139.738;2022-07-10T08:17:57;99381.06;;;50.48;20.58
9415;BME280;4746;35.664;139.738;2022-07-10T08:20:26;99365.66;;;50.78;20.11
9415;BME280;4746;35.664;139.738;2022-07-10T08:22:54;99367.75;;;51.22;19.71
9415;BME280;4746;35.664;139.738;2022-07-10T08:25:22;99376.50;;;51.24;19.71
9415;BME280;4746;35.664;139.738;2022-07-10T08:27:50;99388.34;;;50.79;20.03
9415;BME280;4746;35.664;139.738;2022-07-10T08:30:18;99380.94;;;49.92;20.50
9415;BME280;4746;35.664;139.738;2022-07-10T08:32:45;99378.59;;;49.47;20.48
9415;BME280;4746;35.664;139.738;2022-07-10T08:35:13;99379.09;;;49.18;21.45
9415;BME280;4746;35.664;139.738;2022-07-10T08:37:43;99392.91;;;49.33;20.96
9415;BME280;4746;35.664;139.738;2022-07-10T08:40:15;99373.88;;;49.38;21.05
9415;BME280;4746;35.664;139.738;2022-07-10T08:42:43;99397.81;;;49.36;21.35
9415;BME280;4746;35.664;139.738;2022-07-10T08:45:13;99392.06;;;49.33;21.17
9415;BME280;4746;35.664;139.738;2022-07-10T08:47:41;99389.59;;;49.31;21.07
9415;BME280;4746;35.664;139.738;2022-07-10T08:50:24;99391.97;;;49.23;21.31
9415;BME280;4746;35.664;139.738;2022-07-10T08:53:09;99393.59;;;48.81;21.75
9415;BME280;4746;35.664;139.738;2022-07-10T08:55:37;99398.28;;;48.64;21.75
9415;BME280;4746;35.664;139.738;2022-07-10T08:58:05;99390.63;;;47.90;22.39
9415;BME280;4746;35.664;139.738;2022-07-10T09:00:35;99400.09;;;46.31;23.91
9415;BME280;4746;35.664;139.738;2022-07-10T09:03:03;99402.75;;;44.62;25.74
9415;BME280;4746;35.664;139.738;2022-07-10T09:05:30;99405.63;;;42.95;28.39
9415;BME280;4746;35.664;139.738;2022-07-10T09:07:58;99390.41;;;41.66;30.21
9415;BME280;4746;35.664;139.738;2022-07-10T09:10:27;99397.13;;;40.70;31.32
9415;BME280;4746;35.664;139.738;2022-07-10T09:13:00;99409.06;;;39.86;33.44
9415;BME280;4746;35.664;139.738;2022-07-10T09:15:32;99412.19;;;39.12;33.92
9415;BME280;4746;35.664;139.738;2022-07-10T09:18:05;99402.69;;;38.52;35.60
9415;BME280;4746;35.664;139.738;2022-07-10T09:20:39;99421.72;;;38.06;36.34
9415;BME280;4746;35.664;139.738;2022-07-10T09:23:23;99414.25;;;37.57;37.22
9415;BME280;4746;35.664;139.738;2022-07-10T09:25:53;99417.66;;;37.21;38.41
9415;BME280;4746;35.664;139.738;2022-07-10T09:28:22;99402.97;;;36.86;39.28
9415;BME280;4746;35.664;139.738;2022-07-10T09:30:51;99411.25;;;36.53;40.09
9415;BME280;4746;35.664;139.738;2022-07-10T09:33:24;99410.94;;;36.32;40.70
9415;BME280;4746;35.664;139.738;2022-07-10T09:36:06;99414.34;;;36.10;40.96
9415;BME280;4746;35.664;139.738;2022-07-10T09:38:49;99414.81;;;35.82;41.77
9415;BME280;4746;35.664;139.738;2022-07-10T09:41:29;99413.97;;;35.50;42.38
9415;BME280;4746;35.664;139.738;2022-07-10T09:44:05;99407.88;;;35.16;42.76
9415;BME280;4746;35.664;139.738;2022-07-10T09:46:39;99408.44;;;34.86;43.88
9415;BME280;4746;35.664;139.738;2022-07-10T09:49:13;99423.31;;;34.63;45.31
9415;BME280;4746;35.664;139.738;2022-07-10T09:51:46;99424.31;;;34.37;45.76
9415;BME280;4746;35.664;139.738;2022-07-10T09:54:16;99421.31;;;34.15;46.04
9415;BME280;4746;35.664;139.738;2022-07-10T09:56:47;99426.66;;;33.97;46.75
9415;BME280;4746;35.664;139.738;2022-07-10T09:59:19;99424.34;;;33.77;47.53
9415;BME280;4746;35.664;139.738;2022-07-10T10:01:52;99421.53;;;33.61;47.84
9415;BME280;4746;35.664;139.738;2022-07-10T10:04:22;99424.97;;;33.44;48.15
9415;BME280;4746;35.664;139.738;2022-07-10T10:06:56;99437.66;;;33.33;48.85
9415;BME280;4746;35.664;139.738;2022-07-10T10:09:57;99447.38;;;33.24;48.33
9415;BME280;4746;35.664;139.738;2022-07-10T10:12:54;99454.88;;;33.12;49.00
9415;BME280;4746;35.664;139.738;2022-07-10T10:15:25;99455.91;;;32.92;50.55
9415;BME280;4746;35.664;139.738;2022-07-10T10:17:54;99445.47;;;32.81;50.86
9415;BME280;4746;35.664;139.738;2022-07-10T10:20:23;99449.44;;;32.77;50.97
9415;BME280;4746;35.664;139.738;2022-07-10T10:23:20;99482.97;;;32.78;50.80
9415;BME280;4746;35.664;139.738;2022-07-10T10:25:53;99466.53;;;32.65;51.32
9415;BME280;4746;35.664;139.738;2022-07-10T10:28:23;99454.50;;;32.61;51.81
9415;BME280;4746;35.664;139.738;2022-07-10T10:31:11;99444.59;;;32.63;51.32
9415;BME280;4746;35.664;139.738;2022-07-10T10:33:43;99454.38;;;32.53;51.88
9415;BME280;4746;35.664;139.738;2022-07-10T10:36:15;99457.59;;;32.47;52.21
9415;BME280;4746;35.664;139.738;2022-07-10T10:39:13;99461.81;;;32.40;52.28
9415;BME280;4746;35.664;139.738;2022-07-10T10:41:55;99469.06;;;32.38;52.18
9415;BME280;4746;35.664;139.738;2022-07-10T10:44:24;99463.94;;;32.27;53.16
9415;BME280;4746;35.664;139.738;2022-07-10T10:46:53;99464.81;;;32.18;53.27
9415;BME280;4746;35.664;139.738;2022-07-10T10:49:55;99480.56;;;32.20;52.96
9415;BME280;4746;35.664;139.738;2022-07-10T10:52:28;99473.59;;;32.09;53.52
9415;BME280;4746;35.664;139.738;2022-07-10T10:57:37;99469.81;;;32.02;53.89
9415;BME280;4746;35.664;139.738;2022-07-10T11:00:30;99488.13;;;32.05;53.93
9415;BME280;4746;35.664;139.738;2022-07-10T11:03:32;99495.63;;;32.00;53.77
9415;BME280;4746;35.664;139.738;2022-07-10T11:06:00;99490.06;;;31.84;54.89
9415;BME280;4746;35.664;139.738;2022-07-10T11:08:42;99486.16;;;31.88;54.95
9415;BME280;4746;35.664;139.738;2022-07-10T11:14:00;99506.22;;;31.81;55.38
9415;BME280;4746;35.664;139.738;2022-07-10T11:16:27;99500.38;;;31.78;55.48
9415;BME280;4746;35.664;139.738;2022-07-10T11:19:00;99495.94;;;31.78;56.18
9415;BME280;4746;35.664;139.738;2022-07-10T11:21:43;99511.13;;;31.76;55.78
9415;BME280;4746;35.664;139.738;2022-07-10T11:24:42;99514.34;;;31.80;55.84
9415;BME280;4746;35.664;139.738;2022-07-10T11:30:23;99519.03;;;31.58;56.98
9415;BME280;4746;35.664;139.738;2022-07-10T11:32:51;99526.28;;;31.56;57.24
9415;BME280;4746;35.664;139.738;2022-07-10T11:35:19;99529.06;;;31.54;56.70
9415;BME280;4746;35.664;139.738;2022-07-10T11:37:54;99515.97;;;31.53;57.31
9415;BME280;4746;35.664;139.738;2022-07-10T11:40:22;99540.31;;;31.47;57.21
9415;BME280;4746;35.664;139.738;2022-07-10T11:42:52;99532.38;;;31.47;57.43
9415;BME280;4746;35.664;139.738;2022-07-10T11:45:29;99543.28;;;31.53;57.05
9415;BME280;4746;35.664;139.738;2022-07-10T11:47:59;99543.69;;;31.49;57.13
9415;BME280;4746;35.664;139.738;2022-07-10T11:50:27;99553.56;;;31.47;57.85
9415;BME280;4746;35.664;139.738;2022-07-10T11:53:02;99555.41;;;31.46;58.00
9415;BME280;4746;35.664;139.738;2022-07-10T11:55:30;99559.44;;;31.50;57.83
9415;BME280;4746;35.664;139.738;2022-07-10T11:58:23;99577.09;;;31.61;57.40
9415;BME280;4746;35.664;139.738;2022-07-10T12:01:04;99572.59;;;31.61;57.87
9415;BME280;4746;35.664;139.738;2022-07-10T12:03:33;99564.47;;;31.53;57.99
9415;BME280;4746;35.664;139.738;2022-07-10T12:06:06;99570.34;;;31.57;58.59
9415;BME280;4746;35.664;139.738;2022-07-10T12:08:47;99565.38;;;31.63;58.22
9415;BME280;4746;35.664;139.738;2022-07-10T12:11:17;99568.28;;;31.60;58.56
9415;BME280;4746;35.664;139.738;2022-07-10T12:13:47;99564.78;;;31.60;58.55
9415;BME280;4746;35.664;139.738;2022-07-10T12:16:15;99574.97;;;31.55;58.75
9415;BME280;4746;35.664;139.738;2022-07-10T12:18:45;99582.91;;;31.55;58.92
9415;BME280;4746;35.664;139.738;2022-07-10T12:21:14;99579.28;;;31.56;58.40
9415;BME280;4746;35.664;139.738;2022-07-10T12:23:45;99572.03;;;31.58;58.22
9415;BME280;4746;35.664;139.738;2022-07-10T12:26:13;99573.00;;;31.57;58.50
9415;BME280;4746;35.664;139.738;2022-07-10T12:28:54;99579.72;;;31.61;57.98
9415;BME280;4746;35.664;139.738;2022-07-10T12:31:31;99590.31;;;31.61;58.32
9415;BME280;4746;35.664;139.738;2022-07-10T12:34:04;99588.91;;;31.57;58.50
9415;BME280;4746;35.664;139.738;2022-07-10T12:36:53;99584.03;;;31.62;58.33
9415;BME280;4746;35.664;139.738;2022-07-10T12:39:24;99579.28;;;31.56;58.66
9415;BME280;4746;35.664;139.738;2022-07-10T12:41:56;99582.91;;;31.55;58.92
9415;BME280;4746;35.664;139.738;2022-07-10T12:44:45;99586.13;;;31.58;58.32
9415;BME280;4746;35.664;139.738;2022-07-10T12:47:18;99563.91;;;31.50;58.64
9415;BME280;4746;35.664;139.738;2022-07-10T12:50:06;99572.88;;;31.58;58.32
9415;BME280;4746;35.664;139.738;2022-07-10T12:52:39;99572.56;;;31.52;58.75
9415;BME280;4746;35.664;139.738;2022-07-10T12:57:54;99574.13;;;31.54;58.83
9415;BME280;4746;35.664;139.738;2022-07-10T13:00:25;99570.03;;;31.50;58.81
9415;BME280;4746;35.664;139.738;2022-07-10T13:03:05;99568.66;;;31.56;58.26
9415;BME280;4746;35.664;139.738;2022-07-10T13:05:39;99578.97;;;31.49;58.83
9415;BME280;4746;35.664;139.738;2022-07-10T13:08:21;99582.56;;;31.48;58.80
9415;BME280;4746;35.664;139.738;2022-07-10T13:10:56;99577.00;;;31.42;59.15
9415;BME280;4746;35.664;139.738;2022-07-10T13:13:25;99583.78;;;31.35;59.46
9415;BME280;4746;35.664;139.738;2022-07-10T13:15:53;99582.81;;;31.36;59.37
9415;BME280;4746;35.664;139.738;2022-07-10T13:18:26;99572.22;;;31.36;59.23
9415;BME280;4746;35.664;139.738;2022-07-10T13:20:56;99572.22;;;31.36;59.86
9415;BME280;4746;35.664;139.738;2022-07-10T13:23:25;99568.88;;;31.34;60.19
9415;BME280;4746;35.664;139.738;2022-07-10T13:25:55;99574.44;;;31.31;60.20
9415;BME280;4746;35.664;139.738;2022-07-10T13:28:23;99574.16;;;31.34;60.17
9415;BME280;4746;35.664;139.738;2022-07-10T13:30:51;99575.03;;;31.34;60.29